sensor_id;sensor_type;location;lat;lon;timestamp;P1;durP1;ratioP1;P2;durP2;ratioP2
14876;SDS011;69691;48.172;17.070;2024-03-06T00:01:47;168.10;;;43.42;;
14876;SDS011;69691;48.172;17.070;2024-03-06T00:04:15;155.95;;;45.55;;
14876;SDS011;69691;48.172;17.070;2024-03-06T00:06:41;173.00;;;44.45;;
14876;SDS011;69691;48.172;17.070;2024-03-06T00:09:07;160.65;;;44.80;;
14876;SDS011;69691;48.172;17.070;2024-03-06T00:11:34;159.68;;;45.40;;
14876;SDS011;69691;48.172;17.070;2024-03-06T00:14:03;159.13;;;45.95;;
14876;SDS011;69691;48.172;17.070;2024-03-06T00:16:31;154.75;;;43.10;;
14876;SDS011;69691;48.172;17.070;2024-03-06T00:18:57;126.97;;;39.33;;
14876;SDS011;69691;48.172;17.070;2024-03-06T00:21:23;138.38;;;43.28;;
14876;SDS011;69691;48.172;17.070;2024-03-06T00:23:48;140.35;;;42.05;;
14876;SDS011;69691;48.172;17.070;2024-03-06T00:26:14;142.85;;;43.60;;
14876;SDS011;69691;48.172;17.070;2024-03-06T00:28:40;129.05;;;42.45;;
14876;SDS011;69691;48.172;17.070;2024-03-06T00:31:06;140.60;;;41.38;;
14876;SDS011;69691;48.172;17.070;2024-03-06T00:33:32;147.88;;;42.28;;
14876;SDS011;69691;48.172;17.070;2024-03-06T00:35:58;133.07;;;42.42;;
14876;SDS011;69691;48.172;17.070;2024-03-06T00:38:24;133.98;;;44.25;;
14876;SDS011;69691;48.172;17.070;2024-03-06T00:40:49;121.18;;;40.15;;
14876;SDS011;69691;48.172;17.070;2024-03-06T00:43:15;137.02;;;42.95;;
14876;SDS011;69691;48.172;17.070;2024-03-06T00:45:41;152.82;;;43.92;;
14876;SDS011;69691;48.172;17.070;2024-03-06T00:48:07;124.30;;;39.83;;
14876;SDS011;69691;48.172;17.070;2024-03-06T00:50:33;140.13;;;42.42;;
14876;SDS011;69691;48.172;17.070;2024-03-06T00:52:59;120.25;;;40.95;;
14876;SDS011;69691;48.172;17.070;2024-03-06T00:55:25;128.27;;;42.10;;
14876;SDS011;69691;48.172;17.070;2024-03-06T00:57:50;130.27;;;41.03;;
14876;SDS011;69691;48.172;17.070;2024-03-06T01:00:16;131.35;;;40.42;;
14876;SDS011;69691;48.172;17.070;2024-03-06T01:02:43;137.05;;;40.75;;
14876;SDS011;69691;48.172;17.070;2024-03-06T01:05:09;127.03;;;41.05;;
14876;SDS011;69691;48.172;17.070;2024-03-06T01:07:38;137.00;;;41.22;;
14876;SDS011;69691;48.172;17.070;2024-03-06T01:10:08;131.73;;;40.97;;
14876;SDS011;69691;48.172;17.070;2024-03-06T01:12:34;120.70;;;41.10;;
14876;SDS011;69691;48.172;17.070;2024-03-06T01:15:00;119.80;;;41.40;;
14876;SDS011;69691;48.172;17.070;2024-03-06T01:17:27;128.75;;;40.63;;
14876;SDS011;69691;48.172;17.070;2024-03-06T01:19:52;121.43;;;42.28;;
14876;SDS011;69691;48.172;17.070;2024-03-06T01:22:18;131.30;;;40.28;;
14876;SDS011;69691;48.172;17.070;2024-03-06T01:24:44;127.40;;;42.60;;
14876;SDS011;69691;48.172;17.070;2024-03-06T01:27:15;125.55;;;40.90;;
14876;SDS011;69691;48.172;17.070;2024-03-06T01:29:41;115.88;;;39.70;;
14876;SDS011;69691;48.172;17.070;2024-03-06T01:32:07;125.10;;;41.67;;
14876;SDS011;69691;48.172;17.070;2024-03-06T01:34:35;126.32;;;41.28;;
14876;SDS011;69691;48.172;17.070;2024-03-06T01:37:01;156.80;;;47.30;;
14876;SDS011;69691;48.172;17.070;2024-03-06T01:39:27;147.52;;;47.15;;
14876;SDS011;69691;48.172;17.070;2024-03-06T01:41:53;150.60;;;47.83;;
14876;SDS011;69691;48.172;17.070;2024-03-06T01:44:18;137.82;;;45.22;;
14876;SDS011;69691;48.172;17.070;2024-03-06T01:46:45;148.90;;;44.92;;
14876;SDS011;69691;48.172;17.070;2024-03-06T01:49:12;148.90;;;44.50;;
14876;SDS011;69691;48.172;17.070;2024-03-06T01:51:43;133.70;;;44.17;;
14876;SDS011;69691;48.172;17.070;2024-03-06T01:54:14;142.00;;;45.65;;
14876;SDS011;69691;48.172;17.070;2024-03-06T01:56:44;139.15;;;46.00;;
14876;SDS011;69691;48.172;17.070;2024-03-06T01:59:21;147.13;;;45.33;;
14876;SDS011;69691;48.172;17.070;2024-03-06T02:01:52;126.30;;;42.22;;
14876;SDS011;69691;48.172;17.070;2024-03-06T02:04:19;132.68;;;43.45;;
14876;SDS011;69691;48.172;17.070;2024-03-06T02:06:45;121.43;;;43.97;;
14876;SDS011;69691;48.172;17.070;2024-03-06T02:09:12;119.75;;;41.45;;
14876;SDS011;69691;48.172;17.070;2024-03-06T02:11:41;127.38;;;42.47;;
14876;SDS011;69691;48.172;17.070;2024-03-06T02:14:07;131.52;;;44.03;;
14876;SDS011;69691;48.172;17.070;2024-03-06T02:16:35;121.50;;;42.30;;
14876;SDS011;69691;48.172;17.070;2024-03-06T02:19:04;121.90;;;42.03;;
14876;SDS011;69691;48.172;17.070;2024-03-06T02:21:30;105.70;;;41.70;;
14876;SDS011;69691;48.172;17.070;2024-03-06T02:23:57;100.50;;;41.47;;
14876;SDS011;69691;48.172;17.070;2024-03-06T02:26:23;107.53;;;40.65;;
14876;SDS011;69691;48.172;17.070;2024-03-06T02:28:50;106.38;;;39.47;;
14876;SDS011;69691;48.172;17.070;2024-03-06T02:31:17;112.50;;;42.85;;
14876;SDS011;69691;48.172;17.070;2024-03-06T02:33:45;120.53;;;44.30;;
14876;SDS011;69691;48.172;17.070;2024-03-06T02:36:15;120.75;;;43.30;;
14876;SDS011;69691;48.172;17.070;2024-03-06T02:38:42;127.40;;;44.63;;
14876;SDS011;69691;48.172;17.070;2024-03-06T02:41:09;115.38;;;43.40;;
14876;SDS011;69691;48.172;17.070;2024-03-06T02:43:36;121.80;;;46.10;;
14876;SDS011;69691;48.172;17.070;2024-03-06T02:46:03;122.63;;;45.10;;
14876;SDS011;69691;48.172;17.070;2024-03-06T02:48:29;117.60;;;42.60;;
14876;SDS011;69691;48.172;17.070;2024-03-06T02:50:56;118.03;;;43.20;;
14876;SDS011;69691;48.172;17.070;2024-03-06T02:53:22;121.28;;;42.65;;
14876;SDS011;69691;48.172;17.070;2024-03-06T02:55:48;121.03;;;43.78;;
14876;SDS011;69691;48.172;17.070;2024-03-06T02:58:14;118.93;;;42.83;;
14876;SDS011;69691;48.172;17.070;2024-03-06T03:00:42;103.80;;;39.75;;
14876;SDS011;69691;48.172;17.070;2024-03-06T03:03:09;114.13;;;43.25;;
14876;SDS011;69691;48.172;17.070;2024-03-06T03:05:37;118.28;;;42.20;;
14876;SDS011;69691;48.172;17.070;2024-03-06T03:08:04;117.80;;;40.83;;
14876;SDS011;69691;48.172;17.070;2024-03-06T03:10:31;125.72;;;42.83;;
14876;SDS011;69691;48.172;17.070;2024-03-06T03:12:59;114.38;;;44.47;;
14876;SDS011;69691;48.172;17.070;2024-03-06T03:15:25;122.63;;;44.05;;
14876;SDS011;69691;48.172;17.070;2024-03-06T03:17:51;108.22;;;40.78;;
14876;SDS011;69691;48.172;17.070;2024-03-06T03:20:18;110.43;;;42.13;;
14876;SDS011;69691;48.172;17.070;2024-03-06T03:22:43;101.93;;;40.58;;
14876;SDS011;69691;48.172;17.070;2024-03-06T03:25:10;105.10;;;42.85;;
14876;SDS011;69691;48.172;17.070;2024-03-06T03:27:37;115.93;;;45.15;;
14876;SDS011;69691;48.172;17.070;2024-03-06T03:30:12;103.93;;;41.97;;
14876;SDS011;69691;48.172;17.070;2024-03-06T03:32:38;102.88;;;41.17;;
14876;SDS011;69691;48.172;17.070;2024-03-06T03:35:04;108.90;;;42.70;;
14876;SDS011;69691;48.172;17.070;2024-03-06T03:37:31;107.53;;;40.97;;
14876;SDS011;69691;48.172;17.070;2024-03-06T03:39:58;102.63;;;41.20;;
14876;SDS011;69691;48.172;17.070;2024-03-06T03:42:24;108.90;;;42.30;;
14876;SDS011;69691;48.172;17.070;2024-03-06T03:44:49;113.90;;;42.75;;
14876;SDS011;69691;48.172;17.070;2024-03-06T03:47:15;102.30;;;39.65;;
14876;SDS011;69691;48.172;17.070;2024-03-06T03:49:41;109.47;;;42.03;;
14876;SDS011;69691;48.172;17.070;2024-03-06T03:52:07;94.95;;;40.53;;
14876;SDS011;69691;48.172;17.070;2024-03-06T03:54:33;104.15;;;44.40;;
14876;SDS011;69691;48.172;17.070;2024-03-06T03:57:00;99.47;;;40.85;;
14876;SDS011;69691;48.172;17.070;2024-03-06T03:59:26;103.43;;;41.55;;
14876;SDS011;69691;48.172;17.070;2024-03-06T04:01:52;100.38;;;42.05;;
14876;SDS011;69691;48.172;17.070;2024-03-06T04:04:18;113.57;;;42.28;;
14876;SDS011;69691;48.172;17.070;2024-03-06T04:06:44;98.22;;;41.45;;
14876;SDS011;69691;48.172;17.070;2024-03-06T04:09:13;111.38;;;43.30;;
14876;SDS011;69691;48.172;17.070;2024-03-06T04:11:40;104.45;;;40.05;;
14876;SDS011;69691;48.172;17.070;2024-03-06T04:14:06;98.20;;;41.95;;
14876;SDS011;69691;48.172;17.070;2024-03-06T04:16:33;115.80;;;42.25;;
14876;SDS011;69691;48.172;17.070;2024-03-06T04:18:59;112.15;;;44.92;;
14876;SDS011;69691;48.172;17.070;2024-03-06T04:21:26;102.43;;;44.63;;
14876;SDS011;69691;48.172;17.070;2024-03-06T04:23:52;106.53;;;43.10;;
14876;SDS011;69691;48.172;17.070;2024-03-06T04:26:18;100.03;;;43.22;;
14876;SDS011;69691;48.172;17.070;2024-03-06T04:28:44;104.55;;;43.13;;
14876;SDS011;69691;48.172;17.070;2024-03-06T04:31:10;100.40;;;41.10;;
14876;SDS011;69691;48.172;17.070;2024-03-06T04:33:36;102.65;;;41.33;;
14876;SDS011;69691;48.172;17.070;2024-03-06T04:36:02;101.45;;;43.10;;
14876;SDS011;69691;48.172;17.070;2024-03-06T04:38:32;99.95;;;40.20;;
14876;SDS011;69691;48.172;17.070;2024-03-06T04:40:58;113.45;;;42.70;;
14876;SDS011;69691;48.172;17.070;2024-03-06T04:43:24;107.85;;;41.22;;
14876;SDS011;69691;48.172;17.070;2024-03-06T04:45:49;99.07;;;40.03;;
14876;SDS011;69691;48.172;17.070;2024-03-06T04:48:15;104.93;;;42.08;;
14876;SDS011;69691;48.172;17.070;2024-03-06T04:50:41;106.18;;;41.25;;
14876;SDS011;69691;48.172;17.070;2024-03-06T04:53:07;102.22;;;42.38;;
14876;SDS011;69691;48.172;17.070;2024-03-06T04:55:33;109.47;;;43.63;;
14876;SDS011;69691;48.172;17.070;2024-03-06T04:58:02;100.75;;;40.50;;
14876;SDS011;69691;48.172;17.070;2024-03-06T05:00:29;95.40;;;40.28;;
14876;SDS011;69691;48.172;17.070;2024-03-06T05:02:55;101.88;;;42.88;;
14876;SDS011;69691;48.172;17.070;2024-03-06T05:05:21;113.85;;;44.88;;
14876;SDS011;69691;48.172;17.070;2024-03-06T05:07:48;113.00;;;44.22;;
14876;SDS011;69691;48.172;17.070;2024-03-06T05:10:14;103.97;;;40.53;;
14876;SDS011;69691;48.172;17.070;2024-03-06T05:12:41;101.50;;;41.97;;
14876;SDS011;69691;48.172;17.070;2024-03-06T05:15:07;100.72;;;41.60;;
14876;SDS011;69691;48.172;17.070;2024-03-06T05:17:35;104.45;;;42.53;;
14876;SDS011;69691;48.172;17.070;2024-03-06T05:20:01;175.98;;;36.90;;
14876;SDS011;69691;48.172;17.070;2024-03-06T05:22:30;88.28;;;30.85;;
14876;SDS011;69691;48.172;17.070;2024-03-06T05:24:57;85.10;;;31.45;;
14876;SDS011;69691;48.172;17.070;2024-03-06T05:27:23;88.28;;;30.83;;
14876;SDS011;69691;48.172;17.070;2024-03-06T05:29:51;106.00;;;40.80;;
14876;SDS011;69691;48.172;17.070;2024-03-06T05:32:17;506.08;;;89.38;;
14876;SDS011;69691;48.172;17.070;2024-03-06T05:34:43;86.30;;;33.17;;
14876;SDS011;69691;48.172;17.070;2024-03-06T05:37:09;62.33;;;23.88;;
14876;SDS011;69691;48.172;17.070;2024-03-06T05:39:35;44.28;;;19.77;;
14876;SDS011;69691;48.172;17.070;2024-03-06T05:42:03;47.88;;;20.20;;
14876;SDS011;69691;48.172;17.070;2024-03-06T05:44:33;60.05;;;20.42;;
14876;SDS011;69691;48.172;17.070;2024-03-06T05:46:59;46.47;;;18.98;;
14876;SDS011;69691;48.172;17.070;2024-03-06T05:49:27;44.83;;;20.40;;
14876;SDS011;69691;48.172;17.070;2024-03-06T05:51:53;46.47;;;19.90;;
14876;SDS011;69691;48.172;17.070;2024-03-06T05:54:22;40.65;;;21.95;;
14876;SDS011;69691;48.172;17.070;2024-03-06T05:56:50;40.55;;;21.38;;
14876;SDS011;69691;48.172;17.070;2024-03-06T05:59:19;35.97;;;18.38;;
14876;SDS011;69691;48.172;17.070;2024-03-06T06:01:45;43.35;;;20.55;;
14876;SDS011;69691;48.172;17.070;2024-03-06T06:04:12;45.15;;;19.90;;
14876;SDS011;69691;48.172;17.070;2024-03-06T06:06:39;47.58;;;19.95;;
14876;SDS011;69691;48.172;17.070;2024-03-06T06:09:05;31.95;;;19.77;;
14876;SDS011;69691;48.172;17.070;2024-03-06T06:11:34;28.80;;;17.17;;
14876;SDS011;69691;48.172;17.070;2024-03-06T06:14:01;25.95;;;19.42;;
14876;SDS011;69691;48.172;17.070;2024-03-06T06:16:27;39.28;;;17.20;;
14876;SDS011;69691;48.172;17.070;2024-03-06T06:19:01;32.83;;;17.95;;
14876;SDS011;69691;48.172;17.070;2024-03-06T06:21:27;29.75;;;18.67;;
14876;SDS011;69691;48.172;17.070;2024-03-06T06:23:53;37.10;;;17.80;;
14876;SDS011;69691;48.172;17.070;2024-03-06T06:26:19;34.92;;;17.67;;
14876;SDS011;69691;48.172;17.070;2024-03-06T06:28:45;31.90;;;17.63;;
14876;SDS011;69691;48.172;17.070;2024-03-06T06:31:11;26.40;;;16.52;;
14876;SDS011;69691;48.172;17.070;2024-03-06T06:33:37;32.72;;;16.33;;
14876;SDS011;69691;48.172;17.070;2024-03-06T06:36:03;22.38;;;15.13;;
14876;SDS011;69691;48.172;17.070;2024-03-06T06:38:30;38.88;;;18.73;;
14876;SDS011;69691;48.172;17.070;2024-03-06T06:40:55;17.73;;;15.57;;
14876;SDS011;69691;48.172;17.070;2024-03-06T06:43:21;30.10;;;18.83;;
14876;SDS011;69691;48.172;17.070;2024-03-06T06:45:47;30.15;;;16.40;;
14876;SDS011;69691;48.172;17.070;2024-03-06T06:48:14;19.38;;;14.05;;
14876;SDS011;69691;48.172;17.070;2024-03-06T06:50:39;29.23;;;17.77;;
14876;SDS011;69691;48.172;17.070;2024-03-06T06:53:05;40.38;;;17.48;;
14876;SDS011;69691;48.172;17.070;2024-03-06T06:55:31;29.55;;;16.55;;
14876;SDS011;69691;48.172;17.070;2024-03-06T06:57:57;30.58;;;16.77;;
14876;SDS011;69691;48.172;17.070;2024-03-06T07:00:23;25.88;;;15.88;;
14876;SDS011;69691;48.172;17.070;2024-03-06T07:02:50;24.83;;;14.77;;
14876;SDS011;69691;48.172;17.070;2024-03-06T07:05:16;26.10;;;16.65;;
14876;SDS011;69691;48.172;17.070;2024-03-06T07:07:42;28.65;;;15.77;;
14876;SDS011;69691;48.172;17.070;2024-03-06T07:10:08;20.17;;;15.48;;
14876;SDS011;69691;48.172;17.070;2024-03-06T07:12:34;27.55;;;16.80;;
14876;SDS011;69691;48.172;17.070;2024-03-06T07:15:01;22.27;;;15.77;;
14876;SDS011;69691;48.172;17.070;2024-03-06T07:17:30;19.42;;;12.75;;
14876;SDS011;69691;48.172;17.070;2024-03-06T07:19:56;33.38;;;16.05;;
14876;SDS011;69691;48.172;17.070;2024-03-06T07:22:22;27.52;;;15.98;;
14876;SDS011;69691;48.172;17.070;2024-03-06T07:24:48;41.53;;;16.02;;
14876;SDS011;69691;48.172;17.070;2024-03-06T07:27:14;31.98;;;15.45;;
14876;SDS011;69691;48.172;17.070;2024-03-06T07:29:40;21.95;;;14.55;;
14876;SDS011;69691;48.172;17.070;2024-03-06T07:32:05;22.02;;;14.23;;
14876;SDS011;69691;48.172;17.070;2024-03-06T07:34:31;28.27;;;16.25;;
14876;SDS011;69691;48.172;17.070;2024-03-06T07:36:57;31.00;;;17.75;;
14876;SDS011;69691;48.172;17.070;2024-03-06T07:39:27;23.00;;;16.10;;
14876;SDS011;69691;48.172;17.070;2024-03-06T07:41:53;42.38;;;19.55;;
14876;SDS011;69691;48.172;17.070;2024-03-06T07:44:19;25.30;;;17.17;;
14876;SDS011;69691;48.172;17.070;2024-03-06T07:46:45;34.47;;;13.85;;
14876;SDS011;69691;48.172;17.070;2024-03-06T07:49:11;26.70;;;14.52;;
14876;SDS011;69691;48.172;17.070;2024-03-06T07:51:37;35.90;;;16.73;;
14876;SDS011;69691;48.172;17.070;2024-03-06T07:54:05;30.23;;;16.13;;
14876;SDS011;69691;48.172;17.070;2024-03-06T07:56:31;35.05;;;17.35;;
14876;SDS011;69691;48.172;17.070;2024-03-06T07:58:58;26.30;;;16.83;;
14876;SDS011;69691;48.172;17.070;2024-03-06T08:01:25;43.60;;;18.30;;
14876;SDS011;69691;48.172;17.070;2024-03-06T08:03:54;32.50;;;16.90;;
14876;SDS011;69691;48.172;17.070;2024-03-06T08:06:20;33.90;;;18.38;;
14876;SDS011;69691;48.172;17.070;2024-03-06T08:08:46;41.78;;;18.90;;
14876;SDS011;69691;48.172;17.070;2024-03-06T08:11:12;30.45;;;19.63;;
14876;SDS011;69691;48.172;17.070;2024-03-06T08:13:39;45.53;;;21.45;;
14876;SDS011;69691;48.172;17.070;2024-03-06T08:16:06;31.88;;;18.30;;
14876;SDS011;69691;48.172;17.070;2024-03-06T08:18:33;37.35;;;18.10;;
14876;SDS011;69691;48.172;17.070;2024-03-06T08:21:02;34.33;;;17.17;;
14876;SDS011;69691;48.172;17.070;2024-03-06T08:23:32;46.83;;;21.73;;
14876;SDS011;69691;48.172;17.070;2024-03-06T08:25:58;37.33;;;20.17;;
14876;SDS011;69691;48.172;17.070;2024-03-06T08:28:25;42.28;;;19.30;;
14876;SDS011;69691;48.172;17.070;2024-03-06T08:30:51;42.72;;;19.65;;
14876;SDS011;69691;48.172;17.070;2024-03-06T08:33:18;40.30;;;19.98;;
14876;SDS011;69691;48.172;17.070;2024-03-06T08:35:46;32.45;;;20.15;;
14876;SDS011;69691;48.172;17.070;2024-03-06T08:38:12;35.42;;;19.83;;
14876;SDS011;69691;48.172;17.070;2024-03-06T08:40:37;33.25;;;20.42;;
14876;SDS011;69691;48.172;17.070;2024-03-06T08:43:04;39.25;;;20.55;;
14876;SDS011;69691;48.172;17.070;2024-03-06T08:45:30;36.08;;;20.40;;
14876;SDS011;69691;48.172;17.070;2024-03-06T08:47:55;35.42;;;14.70;;
14876;SDS011;69691;48.172;17.070;2024-03-06T08:50:21;26.88;;;14.68;;
14876;SDS011;69691;48.172;17.070;2024-03-06T08:52:47;35.50;;;16.25;;
14876;SDS011;69691;48.172;17.070;2024-03-06T08:55:13;23.92;;;13.35;;
14876;SDS011;69691;48.172;17.070;2024-03-06T08:57:39;29.42;;;14.65;;
14876;SDS011;69691;48.172;17.070;2024-03-06T09:00:05;38.70;;;15.38;;
14876;SDS011;69691;48.172;17.070;2024-03-06T09:02:36;31.50;;;16.88;;
14876;SDS011;69691;48.172;17.070;2024-03-06T09:05:06;29.38;;;16.38;;
14876;SDS011;69691;48.172;17.070;2024-03-06T09:07:35;29.45;;;15.70;;
14876;SDS011;69691;48.172;17.070;2024-03-06T09:10:04;29.98;;;16.05;;
14876;SDS011;69691;48.172;17.070;2024-03-06T09:12:33;24.88;;;13.40;;
14876;SDS011;69691;48.172;17.070;2024-03-06T09:15:34;24.75;;;14.50;;
14876;SDS011;69691;48.172;17.070;2024-03-06T09:18:13;26.48;;;16.63;;
14876;SDS011;69691;48.172;17.070;2024-03-06T09:20:41;37.97;;;16.30;;
14876;SDS011;69691;48.172;17.070;2024-03-06T09:23:08;32.30;;;14.65;;
14876;SDS011;69691;48.172;17.070;2024-03-06T09:25:34;18.38;;;11.57;;
14876;SDS011;69691;48.172;17.070;2024-03-06T09:28:00;21.35;;;10.20;;
14876;SDS011;69691;48.172;17.070;2024-03-06T09:30:29;15.32;;;10.77;;
14876;SDS011;69691;48.172;17.070;2024-03-06T09:32:55;22.88;;;12.38;;
14876;SDS011;69691;48.172;17.070;2024-03-06T09:35:21;42.17;;;12.70;;
14876;SDS011;69691;48.172;17.070;2024-03-06T09:37:47;13.60;;;9.38;;
14876;SDS011;69691;48.172;17.070;2024-03-06T09:40:20;26.65;;;11.57;;
14876;SDS011;69691;48.172;17.070;2024-03-06T09:42:48;17.75;;;11.30;;
14876;SDS011;69691;48.172;17.070;2024-03-06T09:45:17;23.77;;;10.80;;
14876;SDS011;69691;48.172;17.070;2024-03-06T09:47:44;15.18;;;9.95;;
14876;SDS011;69691;48.172;17.070;2024-03-06T09:50:12;27.02;;;11.32;;
14876;SDS011;69691;48.172;17.070;2024-03-06T09:52:45;18.17;;;10.35;;
14876;SDS011;69691;48.172;17.070;2024-03-06T09:55:13;18.13;;;9.63;;
14876;SDS011;69691;48.172;17.070;2024-03-06T09:57:40;19.38;;;11.23;;
14876;SDS011;69691;48.172;17.070;2024-03-06T10:00:06;20.23;;;10.65;;
14876;SDS011;69691;48.172;17.070;2024-03-06T10:02:48;18.92;;;12.20;;
14876;SDS011;69691;48.172;17.070;2024-03-06T10:05:22;23.02;;;11.07;;
14876;SDS011;69691;48.172;17.070;2024-03-06T10:07:52;12.95;;;9.02;;
14876;SDS011;69691;48.172;17.070;2024-03-06T10:10:19;11.52;;;9.90;;
14876;SDS011;69691;48.172;17.070;2024-03-06T10:12:47;14.35;;;10.90;;
14876;SDS011;69691;48.172;17.070;2024-03-06T10:15:14;34.40;;;15.82;;
14876;SDS011;69691;48.172;17.070;2024-03-06T10:17:40;23.65;;;12.75;;
14876;SDS011;69691;48.172;17.070;2024-03-06T10:20:16;29.58;;;14.75;;
14876;SDS011;69691;48.172;17.070;2024-03-06T10:22:48;30.08;;;15.00;;
14876;SDS011;69691;48.172;17.070;2024-03-06T10:25:25;27.45;;;14.07;;
14876;SDS011;69691;48.172;17.070;2024-03-06T10:28:08;26.58;;;13.65;;
14876;SDS011;69691;48.172;17.070;2024-03-06T10:30:39;22.95;;;13.65;;
14876;SDS011;69691;48.172;17.070;2024-03-06T10:33:11;1999.90;;;999.90;;
14876;SDS011;69691;48.172;17.070;2024-03-06T10:35:42;1999.90;;;999.90;;
14876;SDS011;69691;48.172;17.070;2024-03-06T10:38:10;1999.90;;;999.90;;
14876;SDS011;69691;48.172;17.070;2024-03-06T10:40:37;1999.90;;;999.90;;
14876;SDS011;69691;48.172;17.070;2024-03-06T10:43:08;1999.90;;;999.90;;
14876;SDS011;69691;48.172;17.070;2024-03-06T10:45:46;1999.90;;;999.90;;
14876;SDS011;69691;48.172;17.070;2024-03-06T10:48:14;1999.90;;;999.90;;
14876;SDS011;69691;48.172;17.070;2024-03-06T10:50:42;1999.90;;;999.90;;
14876;SDS011;69691;48.172;17.070;2024-03-06T10:53:14;1999.90;;;999.90;;
14876;SDS011;69691;48.172;17.070;2024-03-06T10:55:45;1999.90;;;999.90;;
14876;SDS011;69691;48.172;17.070;2024-03-06T10:58:11;1999.90;;;999.90;;
14876;SDS011;69691;48.172;17.070;2024-03-06T11:00:38;1999.90;;;999.90;;
14876;SDS011;69691;48.172;17.070;2024-03-06T11:03:14;1999.90;;;999.90;;
14876;SDS011;69691;48.172;17.070;2024-03-06T11:05:41;1999.90;;;999.90;;
14876;SDS011;69691;48.172;17.070;2024-03-06T11:08:09;1999.90;;;999.90;;
14876;SDS011;69691;48.172;17.070;2024-03-06T11:10:37;1999.90;;;999.90;;
14876;SDS011;69691;48.172;17.070;2024-03-06T11:15:52;1999.90;;;999.90;;
14876;SDS011;69691;48.172;17.070;2024-03-06T11:23:32;1999.90;;;999.90;;
14876;SDS011;69691;48.172;17.070;2024-03-06T11:28:35;1999.90;;;999.90;;
14876;SDS011;69691;48.172;17.070;2024-03-06T11:31:04;1999.90;;;999.90;;
14876;SDS011;69691;48.172;17.070;2024-03-06T11:33:35;1999.90;;;999.90;;
14876;SDS011;69691;48.172;17.070;2024-03-06T11:39:00;1999.90;;;999.90;;
14876;SDS011;69691;48.172;17.070;2024-03-06T11:41:45;1999.90;;;999.90;;
14876;SDS011;69691;48.172;17.070;2024-03-06T11:44:16;1999.90;;;999.90;;
14876;SDS011;69691;48.172;17.070;2024-03-06T11:46:57;1999.90;;;999.90;;
14876;SDS011;69691;48.172;17.070;2024-03-06T11:49:34;1999.90;;;999.90;;
14876;SDS011;69691;48.172;17.070;2024-03-06T11:52:05;1999.90;;;999.90;;
14876;SDS011;69691;48.172;17.070;2024-03-06T11:54:33;1999.90;;;999.90;;
14876;SDS011;69691;48.172;17.070;2024-03-06T11:57:01;1999.90;;;999.90;;
14876;SDS011;69691;48.172;17.070;2024-03-06T12:01:58;1999.90;;;999.90;;
14876;SDS011;69691;48.172;17.070;2024-03-06T12:04:33;1999.90;;;999.90;;
14876;SDS011;69691;48.172;17.070;2024-03-06T12:07:03;1999.90;;;999.90;;
14876;SDS011;69691;48.172;17.070;2024-03-06T12:09:35;1999.90;;;999.90;;
14876;SDS011;69691;48.172;17.070;2024-03-06T12:12:03;1999.90;;;999.90;;
14876;SDS011;69691;48.172;17.070;2024-03-06T12:14:34;1999.90;;;999.90;;
14876;SDS011;69691;48.172;17.070;2024-03-06T12:17:01;1999.90;;;999.90;;
14876;SDS011;69691;48.172;17.070;2024-03-06T12:19:34;1999.90;;;999.90;;
14876;SDS011;69691;48.172;17.070;2024-03-06T12:22:01;1999.90;;;999.90;;
14876;SDS011;69691;48.172;17.070;2024-03-06T12:24:32;1999.90;;;999.90;;
14876;SDS011;69691;48.172;17.070;2024-03-06T12:27:02;1999.90;;;999.90;;
14876;SDS011;69691;48.172;17.070;2024-03-06T12:29:33;1999.90;;;999.90;;
14876;SDS011;69691;48.172;17.070;2024-03-06T12:32:03;1999.90;;;999.90;;
14876;SDS011;69691;48.172;17.070;2024-03-06T12:34:30;1999.90;;;999.90;;
14876;SDS011;69691;48.172;17.070;2024-03-06T12:36:56;1999.90;;;999.90;;
14876;SDS011;69691;48.172;17.070;2024-03-06T12:39:33;1999.90;;;999.90;;
14876;SDS011;69691;48.172;17.070;2024-03-06T12:41:59;1999.90;;;999.90;;
14876;SDS011;69691;48.172;17.070;2024-03-06T12:44:25;1999.90;;;999.90;;
14876;SDS011;69691;48.172;17.070;2024-03-06T12:46:51;1999.90;;;999.90;;
14876;SDS011;69691;48.172;17.070;2024-03-06T12:49:17;27.85;;;16.42;;
14876;SDS011;69691;48.172;17.070;2024-03-06T12:51:43;28.60;;;16.33;;
14876;SDS011;69691;48.172;17.070;2024-03-06T12:54:10;30.10;;;15.85;;
14876;SDS011;69691;48.172;17.070;2024-03-06T12:56:35;30.38;;;16.00;;
14876;SDS011;69691;48.172;17.070;2024-03-06T12:59:01;27.55;;;15.52;;
14876;SDS011;69691;48.172;17.070;2024-03-06T13:01:27;26.58;;;15.30;;
14876;SDS011;69691;48.172;17.070;2024-03-06T13:03:53;29.17;;;15.98;;
14876;SDS011;69691;48.172;17.070;2024-03-06T13:06:19;30.20;;;15.35;;
14876;SDS011;69691;48.172;17.070;2024-03-06T13:08:46;27.27;;;15.82;;
14876;SDS011;69691;48.172;17.070;2024-03-06T13:11:13;26.85;;;15.55;;
14876;SDS011;69691;48.172;17.070;2024-03-06T13:13:39;27.30;;;16.10;;
14876;SDS011;69691;48.172;17.070;2024-03-06T13:16:05;31.25;;;17.98;;
14876;SDS011;69691;48.172;17.070;2024-03-06T13:18:31;35.22;;;19.83;;
14876;SDS011;69691;48.172;17.070;2024-03-06T13:20:56;35.83;;;19.85;;
14876;SDS011;69691;48.172;17.070;2024-03-06T13:23:23;36.25;;;21.45;;
14876;SDS011;69691;48.172;17.070;2024-03-06T13:25:49;42.63;;;21.98;;
14876;SDS011;69691;48.172;17.070;2024-03-06T13:28:15;40.45;;;22.48;;
14876;SDS011;69691;48.172;17.070;2024-03-06T13:30:41;40.88;;;21.27;;
14876;SDS011;69691;48.172;17.070;2024-03-06T13:33:07;47.88;;;23.70;;
14876;SDS011;69691;48.172;17.070;2024-03-06T13:35:33;38.63;;;20.90;;
14876;SDS011;69691;48.172;17.070;2024-03-06T13:37:58;43.05;;;21.92;;
14876;SDS011;69691;48.172;17.070;2024-03-06T13:40:24;48.95;;;25.45;;
14876;SDS011;69691;48.172;17.070;2024-03-06T13:42:52;48.90;;;25.75;;
14876;SDS011;69691;48.172;17.070;2024-03-06T13:45:17;49.00;;;26.15;;
14876;SDS011;69691;48.172;17.070;2024-03-06T13:47:44;47.78;;;25.77;;
14876;SDS011;69691;48.172;17.070;2024-03-06T13:50:11;47.10;;;25.60;;
14876;SDS011;69691;48.172;17.070;2024-03-06T13:52:40;48.45;;;25.00;;
14876;SDS011;69691;48.172;17.070;2024-03-06T13:55:07;47.67;;;26.60;;
14876;SDS011;69691;48.172;17.070;2024-03-06T13:57:35;47.90;;;25.70;;
14876;SDS011;69691;48.172;17.070;2024-03-06T14:00:02;48.17;;;26.25;;
14876;SDS011;69691;48.172;17.070;2024-03-06T14:02:42;53.53;;;26.52;;
14876;SDS011;69691;48.172;17.070;2024-03-06T14:05:12;48.70;;;26.25;;
14876;SDS011;69691;48.172;17.070;2024-03-06T14:07:39;58.55;;;26.67;;
14876;SDS011;69691;48.172;17.070;2024-03-06T14:10:06;51.83;;;26.05;;
14876;SDS011;69691;48.172;17.070;2024-03-06T14:12:33;50.45;;;26.15;;
14876;SDS011;69691;48.172;17.070;2024-03-06T14:15:00;49.70;;;26.95;;
14876;SDS011;69691;48.172;17.070;2024-03-06T14:17:27;46.88;;;26.05;;